createdAt,value
2023-04-10T00:00:53.660Z,12.30
2023-04-10T00:02:56.656Z,11.93
2023-04-10T00:04:58.345Z,11.52
2023-04-10T00:06:59.988Z,11.45
2023-04-10T00:09:01.552Z,11.50
2023-04-10T00:11:03.724Z,10.83
2023-04-10T00:13:05.360Z,10.98
2023-04-10T00:15:08.111Z,11.27
2023-04-10T00:17:09.745Z,11.10
2023-04-10T00:19:12.787Z,11.15
2023-04-10T00:21:14.367Z,10.10
2023-04-10T00:23:15.889Z,9.40
2023-04-10T00:25:17.615Z,10.53
2023-04-10T00:27:19.214Z,9.53
2023-04-10T00:29:20.757Z,10.20
2023-04-10T00:31:22.390Z,13.23
2023-04-10T00:33:23.959Z,10.40
2023-04-10T00:35:26.867Z,11.32
2023-04-10T00:37:28.425Z,11.38
2023-04-10T00:39:30.002Z,12.00
2023-04-10T00:41:31.657Z,11.68
2023-04-10T00:43:33.238Z,10.50
2023-04-10T00:45:35.045Z,11.95
2023-04-10T00:47:37.565Z,10.57
2023-04-10T00:49:39.248Z,13.37
2023-04-10T00:51:42.105Z,12.10
2023-04-10T00:53:43.707Z,11.50
2023-04-10T00:55:45.675Z,13.93
2023-04-10T00:57:48.052Z,13.15
2023-04-10T00:59:50.254Z,12.88
2023-04-10T01:01:51.961Z,11.85
2023-04-10T01:03:54.845Z,12.40
2023-04-10T01:06:05.673Z,11.50
2023-04-10T01:08:17.662Z,13.23
2023-04-10T01:10:28.978Z,13.00
2023-04-10T01:12:43.310Z,12.57
2023-04-10T01:14:52.520Z,11.40
2023-04-10T01:16:57.851Z,11.63
2023-04-10T01:19:07.943Z,13.00
2023-04-10T01:21:11.766Z,11.27
2023-04-10T01:23:42.463Z,11.57
2023-04-10T01:25:48.547Z,11.38
2023-04-10T01:28:05.076Z,11.52
2023-04-10T01:30:14.305Z,12.40
2023-04-10T01:32:20.189Z,11.88
2023-04-10T01:34:25.462Z,11.93
2023-04-10T01:36:33.654Z,11.60
2023-04-10T01:38:36.262Z,13.32
2023-04-10T01:40:40.402Z,10.05
2023-04-10T01:42:47.472Z,9.95
2023-04-10T01:44:50.281Z,11.60
2023-04-10T01:46:54.340Z,10.15
2023-04-10T01:48:56.832Z,10.85
2023-04-10T01:51:04.029Z,10.55
2023-04-10T01:53:07.293Z,10.25
2023-04-10T01:55:10.198Z,10.55
2023-04-10T01:57:12.484Z,10.95
2023-04-10T01:59:14.158Z,11.18
2023-04-10T02:01:28.362Z,11.18
2023-04-10T02:03:32.990Z,11.50
2023-04-10T02:05:55.936Z,11.52
2023-04-10T02:08:02.307Z,11.73
2023-04-10T02:10:11.773Z,11.48
2023-04-10T02:12:16.727Z,11.57
2023-04-10T02:14:21.672Z,12.07
2023-04-10T02:16:23.910Z,11.48
2023-04-10T02:18:26.897Z,12.20
2023-04-10T02:20:30.952Z,12.43
2023-04-10T02:22:33.575Z,11.88
2023-04-10T02:24:35.632Z,12.02
2023-04-10T02:26:47.002Z,11.52
2023-04-10T02:28:48.586Z,13.05
2023-04-10T02:30:50.230Z,13.68
2023-04-10T02:32:51.840Z,14.85
2023-04-10T02:34:53.633Z,13.60
2023-04-10T02:36:56.738Z,12.57
2023-04-10T02:38:58.271Z,13.80
2023-04-10T02:40:59.797Z,13.02
2023-04-10T02:43:04.354Z,10.73
2023-04-10T02:45:08.784Z,12.75
2023-04-10T02:47:10.348Z,12.05
2023-04-10T02:49:11.881Z,10.35
2023-04-10T02:51:13.647Z,11.30
2023-04-10T02:53:17.175Z,11.85
2023-04-10T02:55:18.981Z,12.65
2023-04-10T02:57:20.567Z,11.60
2023-04-10T02:59:22.125Z,12.82
2023-04-10T03:01:23.729Z,12.43
2023-04-10T03:03:25.767Z,12.15
2023-04-10T03:05:27.477Z,12.32
2023-04-10T03:07:29.265Z,14.02
2023-04-10T03:09:32.162Z,12.82
2023-04-10T03:11:33.880Z,13.20
2023-04-10T03:13:35.598Z,13.40
2023-04-10T03:15:37.967Z,12.88
2023-04-10T03:17:39.522Z,16.83
2023-04-10T03:19:41.080Z,12.68
2023-04-10T03:21:42.704Z,13.05
2023-04-10T03:23:44.517Z,13.10
2023-04-10T03:25:51.359Z,13.15
2023-04-10T03:27:52.957Z,12.13
2023-04-10T03:29:54.658Z,12.90
2023-04-10T03:31:56.294Z,13.60
2023-04-10T03:33:58.260Z,14.15
2023-04-10T03:36:00.236Z,12.27
2023-04-10T03:38:01.959Z,13.65
2023-04-10T03:40:07.422Z,13.80
2023-04-10T03:42:10.400Z,14.60
2023-04-10T03:44:12.022Z,13.23
2023-04-10T03:46:13.590Z,14.23
2023-04-10T03:48:15.121Z,13.32
2023-04-10T03:50:16.818Z,13.35
2023-04-10T03:52:18.310Z,13.50
2023-04-10T03:54:20.047Z,13.90
2023-04-10T03:56:24.639Z,14.73
2023-04-10T03:58:27.528Z,14.07
2023-04-10T04:00:29.290Z,14.20
2023-04-10T04:02:31.186Z,13.23
2023-04-10T04:04:33.122Z,17.30
2023-04-10T04:06:35.136Z,13.38
2023-04-10T04:08:36.697Z,13.93
2023-04-10T04:10:38.177Z,15.48
2023-04-10T04:12:39.788Z,14.07
2023-04-10T04:14:42.631Z,12.98
2023-04-10T04:16:44.269Z,13.35
2023-04-10T04:18:45.870Z,12.70
2023-04-10T04:20:47.442Z,12.52
2023-04-10T04:22:49.333Z,14.30
2023-04-10T04:24:50.858Z,14.15
2023-04-10T04:26:52.647Z,14.40
2023-04-10T04:28:54.200Z,13.70
2023-04-10T04:30:57.109Z,13.75
2023-04-10T04:32:58.756Z,12.95
2023-04-10T04:35:00.496Z,12.57
2023-04-10T04:37:02.083Z,12.75
2023-04-10T04:39:03.865Z,14.43
2023-04-10T04:41:05.888Z,14.68
2023-04-10T04:43:07.429Z,13.75
2023-04-10T04:45:10.205Z,13.43
2023-04-10T04:47:13.078Z,14.75
2023-04-10T04:49:14.656Z,13.82
2023-04-10T04:51:16.241Z,13.45
2023-04-10T04:53:17.827Z,11.75
2023-04-10T04:55:19.361Z,10.95
2023-04-10T04:57:21.373Z,13.30
2023-04-10T04:59:25.823Z,13.85
2023-04-10T05:01:27.374Z,11.90
2023-04-10T05:03:30.432Z,12.95
2023-04-10T05:05:32.274Z,13.38
2023-04-10T05:07:33.811Z,14.00
2023-04-10T05:09:35.443Z,11.40
2023-04-10T05:11:37.023Z,12.35
2023-04-10T05:13:38.627Z,12.93
2023-04-10T05:15:40.208Z,13.32
2023-04-10T05:17:42.102Z,13.10
2023-04-10T05:19:45.110Z,13.48
2023-04-10T05:21:46.630Z,15.20
2023-04-10T05:23:48.140Z,15.57
2023-04-10T05:25:49.683Z,14.43
2023-04-10T05:27:51.330Z,13.18
2023-04-10T05:29:52.989Z,16.38
2023-04-10T05:31:54.630Z,13.68
2023-04-10T05:33:56.144Z,13.43
2023-04-10T05:35:59.031Z,14.20
2023-04-10T05:38:00.744Z,12.23
2023-04-10T05:40:02.406Z,12.45
2023-04-10T05:42:03.973Z,11.10
2023-04-10T05:44:05.544Z,10.10
2023-04-10T05:46:07.434Z,10.20
2023-04-10T05:48:09.162Z,11.63
2023-04-10T05:50:10.710Z,11.25
2023-04-10T05:52:13.661Z,9.13
2023-04-10T05:54:15.168Z,10.82
2023-04-10T05:56:16.742Z,11.68
2023-04-10T05:58:18.322Z,10.00
2023-04-10T06:00:19.931Z,10.57
2023-04-10T06:02:21.750Z,10.98
2023-04-10T06:04:23.754Z,11.15
2023-04-10T06:06:25.764Z,14.32
2023-04-10T06:08:28.847Z,11.45
2023-04-10T06:10:30.504Z,10.52
2023-04-10T06:12:32.225Z,10.10
2023-04-10T06:14:35.341Z,11.95
2023-04-10T06:16:37.087Z,10.27
2023-04-10T06:18:38.919Z,9.50
2023-04-10T06:20:40.485Z,11.02
2023-04-10T06:22:42.093Z,9.27
2023-04-10T06:24:44.924Z,10.25
2023-04-10T06:26:46.437Z,9.80
2023-04-10T06:28:48.034Z,9.82
2023-04-10T06:30:49.646Z,10.13
2023-04-10T06:32:51.296Z,10.82
2023-04-10T06:34:52.896Z,9.27
2023-04-10T06:36:54.402Z,9.20
2023-04-10T06:38:56.055Z,8.50
2023-04-10T06:40:59.137Z,8.10
2023-04-10T06:43:00.835Z,9.35
2023-04-10T06:45:02.962Z,9.10
2023-04-10T06:47:04.542Z,9.20
2023-04-10T06:49:06.093Z,8.75
2023-04-10T06:51:07.973Z,9.27
2023-04-10T06:53:09.472Z,8.73
2023-04-10T06:55:11.538Z,9.32
2023-04-10T06:57:14.566Z,9.68
2023-04-10T06:59:16.111Z,9.10
2023-04-10T07:01:17.832Z,9.27
2023-04-10T07:03:19.657Z,9.38
2023-04-10T07:05:21.411Z,9.20
2023-04-10T07:07:23.289Z,9.02
2023-04-10T07:09:25.391Z,8.45
2023-04-10T07:11:29.191Z,8.85
2023-04-10T07:13:32.311Z,8.57
2023-04-10T07:15:33.961Z,8.13
2023-04-10T07:17:35.803Z,8.45
2023-04-10T07:19:40.473Z,9.00
2023-04-10T07:21:42.063Z,9.10
2023-04-10T07:23:43.690Z,9.85
2023-04-10T07:25:46.184Z,8.73
2023-04-10T07:27:47.727Z,8.50
2023-04-10T07:29:50.858Z,8.55
2023-04-10T07:31:52.441Z,10.27
2023-04-10T07:33:54.020Z,8.02
2023-04-10T07:35:55.684Z,8.50
2023-04-10T07:37:57.263Z,8.73
2023-04-10T07:39:58.828Z,8.73
2023-04-10T07:42:00.632Z,7.33
2023-04-10T07:44:02.172Z,7.60
2023-04-10T07:46:05.581Z,7.30
2023-04-10T07:48:07.298Z,7.20
2023-04-10T07:50:09.356Z,8.10
2023-04-10T07:52:10.939Z,8.13
2023-04-10T07:54:12.561Z,7.23
2023-04-10T07:56:17.796Z,7.00
2023-04-10T07:58:19.395Z,8.13
2023-04-10T08:00:21.296Z,7.10
2023-04-10T08:02:24.425Z,7.67
2023-04-10T08:04:26.308Z,8.17
2023-04-10T08:06:28.135Z,7.30
2023-04-10T08:08:29.863Z,7.87
2023-04-10T08:10:31.461Z,7.53
2023-04-10T08:12:33.628Z,6.30
2023-04-10T08:14:35.181Z,7.70
2023-04-10T08:16:36.882Z,7.77
2023-04-10T08:18:39.919Z,8.50
2023-04-10T08:20:41.541Z,7.90
2023-04-10T08:22:43.233Z,7.33
2023-04-10T08:24:44.873Z,7.60
2023-04-10T08:26:46.403Z,6.93
2023-04-10T08:28:48.982Z,7.47
2023-04-10T08:30:52.988Z,7.57
2023-04-10T08:32:54.533Z,7.87
2023-04-10T08:34:57.449Z,6.47
2023-04-10T08:36:59.090Z,7.73
2023-04-10T08:39:00.693Z,7.93
2023-04-10T08:41:02.365Z,8.67
2023-04-10T08:43:04.039Z,6.90
2023-04-10T08:45:06.709Z,6.93
2023-04-10T08:47:08.979Z,6.90
2023-04-10T08:49:15.496Z,7.37
2023-04-10T08:51:20.648Z,7.13
2023-04-10T08:53:30.853Z,7.07
2023-04-10T08:55:32.620Z,7.57
2023-04-10T08:57:36.274Z,6.67
2023-04-10T08:59:38.588Z,7.83
2023-04-10T09:01:40.825Z,6.70
2023-04-10T09:03:42.610Z,7.73
2023-04-10T09:05:44.238Z,7.43
2023-04-10T09:07:47.277Z,6.40
2023-04-10T09:09:49.166Z,7.73
2023-04-10T09:11:57.896Z,7.00
2023-04-10T09:13:59.621Z,6.43
2023-04-10T09:16:01.264Z,6.83
2023-04-10T09:18:03.702Z,6.50
2023-04-10T09:20:21.237Z,7.20
2023-04-10T09:22:30.772Z,6.47
2023-04-10T09:24:36.085Z,7.10
2023-04-10T09:26:42.033Z,7.00
2023-04-10T09:28:56.113Z,6.70
2023-04-10T09:30:57.685Z,7.50
2023-04-10T09:33:00.618Z,7.63
2023-04-10T09:35:03.928Z,6.20
2023-04-10T09:37:05.505Z,6.87
2023-04-10T09:39:07.905Z,6.73
2023-04-10T09:41:11.376Z,6.57
2023-04-10T09:43:20.958Z,6.50
2023-04-10T09:45:22.636Z,6.30
2023-04-10T09:47:24.365Z,6.03
2023-04-10T09:49:26.120Z,7.10
2023-04-10T09:51:32.010Z,9.00
2023-04-10T09:53:48.718Z,7.67
2023-04-10T09:55:50.724Z,7.10
2023-04-10T09:57:53.746Z,6.13
2023-04-10T09:59:56.658Z,5.87
2023-04-10T10:01:58.709Z,6.43
2023-04-10T10:04:02.762Z,6.53
2023-04-10T10:06:04.786Z,5.70
2023-04-10T10:08:07.361Z,6.80
2023-04-10T10:10:09.355Z,6.20
2023-04-10T10:12:12.266Z,6.37
2023-04-10T10:14:18.153Z,6.60
2023-04-10T10:16:21.820Z,6.37
2023-04-10T10:18:32.558Z,6.67
2023-04-10T10:20:36.611Z,6.30
2023-04-10T10:22:38.559Z,6.77
2023-04-10T10:24:45.061Z,6.37
2023-04-10T10:26:47.631Z,5.73
2023-04-10T10:28:50.781Z,6.37
2023-04-10T10:30:54.578Z,5.83
2023-04-10T10:32:58.246Z,5.83
2023-04-10T10:35:01.947Z,6.10
2023-04-10T10:37:05.770Z,5.63
2023-04-10T10:39:22.082Z,5.93
2023-04-10T10:41:28.728Z,6.30
2023-04-10T10:43:37.736Z,6.77
2023-04-10T10:45:42.776Z,6.03
2023-04-10T10:47:49.374Z,5.47
2023-04-10T10:49:55.948Z,6.70
2023-04-10T10:51:57.512Z,6.30
2023-04-10T10:53:59.199Z,6.73
2023-04-10T10:56:33.976Z,6.57
2023-04-10T10:58:46.900Z,6.47
2023-04-10T11:01:12.605Z,6.97
2023-04-10T11:03:30.879Z,8.20
2023-04-10T11:05:49.768Z,6.53
2023-04-10T11:08:09.840Z,6.50
2023-04-10T11:10:11.431Z,6.10
2023-04-10T11:12:13.082Z,6.13
2023-04-10T11:14:17.049Z,6.97
2023-04-10T11:16:19.592Z,7.20
2023-04-10T11:21:13.386Z,5.90
2023-04-10T11:23:14.937Z,5.97
2023-04-10T11:25:16.677Z,7.20
2023-04-10T11:27:44.590Z,7.80
2023-04-10T11:29:46.303Z,7.40
2023-04-10T11:31:56.491Z,5.87
2023-04-10T11:34:02.813Z,6.17
2023-04-10T11:36:04.979Z,7.83
2023-04-10T11:38:25.970Z,7.20
2023-04-10T11:40:27.538Z,6.93
2023-04-10T11:42:29.125Z,6.30
2023-04-10T11:44:32.428Z,6.70
2023-04-10T11:46:37.304Z,6.20
2023-04-10T11:48:38.934Z,6.07
2023-04-10T11:50:40.521Z,5.70
2023-04-10T11:52:42.167Z,5.93
2023-04-10T11:54:49.486Z,5.13
2023-04-10T11:57:00.096Z,5.60
2023-04-10T11:59:02.302Z,5.33
2023-04-10T12:01:04.844Z,5.03
2023-04-10T12:03:06.563Z,5.17
2023-04-10T12:05:09.284Z,5.20
2023-04-10T12:07:11.122Z,5.30
2023-04-10T12:09:13.450Z,5.77
2023-04-10T12:11:18.424Z,4.73
2023-04-10T12:13:24.887Z,4.97
2023-04-10T12:15:30.353Z,5.23
2023-04-10T12:17:32.097Z,5.60
2023-04-10T12:19:34.862Z,5.57
2023-04-10T12:21:36.754Z,5.20
2023-04-10T12:23:39.408Z,4.83
2023-04-10T12:25:41.850Z,5.50
2023-04-10T12:27:48.964Z,5.67
2023-04-10T12:29:52.000Z,5.33
2023-04-10T12:31:53.612Z,5.23
2023-04-10T12:33:55.292Z,6.27
2023-04-10T12:35:56.987Z,5.27
2023-04-10T12:37:58.622Z,5.30
2023-04-10T12:40:06.129Z,5.50
2023-04-10T12:42:11.530Z,4.70
2023-04-10T12:44:14.420Z,5.20
2023-04-10T12:46:24.445Z,6.00
2023-04-10T12:48:26.210Z,5.40
2023-04-10T12:50:27.781Z,5.40
2023-04-10T12:52:29.480Z,5.40
2023-04-10T12:54:32.841Z,5.37
2023-04-10T12:56:41.551Z,4.63
2023-04-10T12:58:43.160Z,5.00
2023-04-10T13:00:46.280Z,5.03
2023-04-10T13:02:49.111Z,4.50
2023-04-10T13:04:50.920Z,4.70
2023-04-10T13:06:52.648Z,4.63
2023-04-10T13:08:54.593Z,5.13
2023-04-10T13:10:59.603Z,4.80
2023-04-10T13:13:01.185Z,4.70
2023-04-10T13:15:03.319Z,4.70
2023-04-10T13:17:06.323Z,4.73
2023-04-10T13:19:07.919Z,4.70
2023-04-10T13:21:09.707Z,4.43
2023-04-10T13:23:11.541Z,7.73
2023-04-10T13:25:13.284Z,4.70
2023-04-10T13:27:14.954Z,3.73
2023-04-10T13:29:18.823Z,4.03
2023-04-10T13:31:20.429Z,3.90
2023-04-10T13:33:23.478Z,4.37
2023-04-10T13:35:25.079Z,4.73
2023-04-10T13:37:26.715Z,4.40
2023-04-10T13:39:29.466Z,4.30
2023-04-10T13:41:31.087Z,5.30
2023-04-10T13:43:32.874Z,3.97
2023-04-10T13:45:34.575Z,3.77
2023-04-10T13:47:36.251Z,4.53
2023-04-10T13:49:39.430Z,3.60
2023-04-10T13:51:41.004Z,4.07
2023-04-10T13:53:42.666Z,4.10
2023-04-10T13:55:44.760Z,3.33
2023-04-10T13:57:46.450Z,3.87
2023-04-10T13:59:48.010Z,3.50
2023-04-10T14:01:49.720Z,4.27
2023-04-10T14:03:51.633Z,3.73
2023-04-10T14:05:54.704Z,3.67
2023-04-10T14:07:56.292Z,3.60
2023-04-10T14:09:57.910Z,3.70
2023-04-10T14:11:59.556Z,4.50
2023-04-10T14:14:01.279Z,3.40
2023-04-10T14:16:03.001Z,3.60
2023-04-10T14:18:04.985Z,3.23
2023-04-10T14:20:07.870Z,3.50
2023-04-10T14:22:10.865Z,3.57
2023-04-10T14:24:12.413Z,4.50
2023-04-10T14:26:13.970Z,3.53
2023-04-10T14:28:15.589Z,3.57
2023-04-10T14:30:17.231Z,4.30
2023-04-10T14:32:18.913Z,3.50
2023-04-10T14:34:20.562Z,2.80
2023-04-10T14:36:22.129Z,3.20
2023-04-10T14:38:25.237Z,3.83
2023-04-10T14:40:26.827Z,3.67
2023-04-10T14:42:28.396Z,4.47
2023-04-10T14:44:30.309Z,3.40
2023-04-10T14:46:31.881Z,3.47
2023-04-10T14:48:33.498Z,4.10
2023-04-10T14:50:35.242Z,2.97
2023-04-10T14:52:36.975Z,3.23
2023-04-10T14:54:39.942Z,2.97
2023-04-10T14:56:41.628Z,4.10
2023-04-10T14:58:43.954Z,4.90
2023-04-10T15:00:45.683Z,3.10
2023-04-10T15:02:47.351Z,3.47
2023-04-10T15:04:50.746Z,3.23
2023-04-10T15:06:52.360Z,5.50
2023-04-10T15:08:55.000Z,4.77
2023-04-10T15:10:57.957Z,3.10
2023-04-10T15:12:59.560Z,3.07
2023-04-10T15:15:01.236Z,3.50
2023-04-10T15:17:02.997Z,2.63
2023-04-10T15:19:04.635Z,5.70
2023-04-10T15:21:06.380Z,3.30
2023-04-10T15:23:08.254Z,3.10
2023-04-10T15:25:10.035Z,4.70
2023-04-10T15:27:13.030Z,4.30
2023-04-10T15:29:14.869Z,3.90
2023-04-10T15:31:16.546Z,4.37
2023-04-10T15:33:18.175Z,5.27
2023-04-10T15:35:19.765Z,3.77
2023-04-10T15:37:21.272Z,4.67
2023-04-10T15:39:23.084Z,4.37
2023-04-10T15:41:24.547Z,3.57
2023-04-10T15:43:27.653Z,4.87
2023-04-10T15:45:29.414Z,3.53
2023-04-10T15:47:31.295Z,3.53
2023-04-10T15:49:37.663Z,4.10
2023-04-10T15:51:40.573Z,4.03
2023-04-10T15:53:42.323Z,3.70
2023-04-10T15:55:43.914Z,3.63
2023-04-10T15:57:47.722Z,3.80
2023-04-10T15:59:52.868Z,4.00
2023-04-10T16:01:54.575Z,3.67
2023-04-10T16:03:56.648Z,3.60
2023-04-10T16:05:58.621Z,4.03
2023-04-10T16:08:02.280Z,3.37
2023-04-10T16:10:04.301Z,4.17
2023-04-10T16:12:06.085Z,3.93
2023-04-10T16:14:07.753Z,4.20
2023-04-10T16:16:15.425Z,4.33
2023-04-10T16:18:17.219Z,4.10
2023-04-10T16:20:18.816Z,5.00
2023-04-10T16:22:20.517Z,6.57
2023-04-10T16:24:22.241Z,6.50
2023-04-10T16:26:24.008Z,7.33
2023-04-10T16:28:25.878Z,6.97
2023-04-10T16:30:27.403Z,4.80
2023-04-10T16:32:31.729Z,5.00
2023-04-10T16:34:34.392Z,5.40
2023-04-10T16:36:37.399Z,6.87
2023-04-10T16:38:39.013Z,6.47
2023-04-10T16:40:40.674Z,5.90
2023-04-10T16:42:42.549Z,6.53
2023-04-10T16:44:44.165Z,7.13
2023-04-10T16:46:45.793Z,6.10
2023-04-10T16:48:48.808Z,5.40
2023-04-10T16:50:50.511Z,4.40
2023-04-10T16:52:52.180Z,5.20
2023-04-10T16:54:53.765Z,4.23
2023-04-10T16:56:55.346Z,3.93
2023-04-10T16:58:57.298Z,4.23
2023-04-10T17:00:59.184Z,4.10
2023-04-10T17:03:00.926Z,4.63
2023-04-10T17:05:04.058Z,4.63
2023-04-10T17:07:05.801Z,4.57
2023-04-10T17:09:07.402Z,3.80
2023-04-10T17:11:09.257Z,4.10
2023-04-10T17:13:10.874Z,4.70
2023-04-10T17:15:12.580Z,5.30
2023-04-10T17:17:14.467Z,6.33
2023-04-10T17:19:16.034Z,6.40
2023-04-10T17:21:18.951Z,5.33
2023-04-10T17:23:20.616Z,5.20
2023-04-10T17:25:22.378Z,6.93
2023-04-10T17:27:23.963Z,6.50
2023-04-10T17:29:25.729Z,4.27
2023-04-10T17:31:27.417Z,4.70
2023-04-10T17:33:29.138Z,4.73
2023-04-10T17:35:30.812Z,4.50
2023-04-10T17:37:33.669Z,3.40
2023-04-10T17:39:35.165Z,8.27
2023-04-10T17:41:36.706Z,7.13
2023-04-10T17:43:38.235Z,3.70
2023-04-10T17:45:40.350Z,3.53
2023-04-10T17:47:41.973Z,3.90
2023-04-10T17:49:43.697Z,5.90
2023-04-10T17:51:45.254Z,5.00
2023-04-10T17:53:51.223Z,4.23
2023-04-10T17:55:52.758Z,4.63
2023-04-10T17:57:56.728Z,3.60
2023-04-10T17:59:58.316Z,5.90
2023-04-10T18:01:59.975Z,4.30
2023-04-10T18:04:03.554Z,5.17
2023-04-10T18:06:05.509Z,6.90
2023-04-10T18:08:07.137Z,8.20
2023-04-10T18:10:11.464Z,8.27
2023-04-10T18:12:13.295Z,6.53
2023-04-10T18:14:14.996Z,8.00
2023-04-10T18:16:16.749Z,5.50
2023-04-10T18:18:18.344Z,5.43
2023-04-10T18:20:20.069Z,8.47
2023-04-10T18:22:21.759Z,4.60
2023-04-10T18:24:23.329Z,5.33
2023-04-10T18:26:28.789Z,5.20
2023-04-10T18:28:30.356Z,5.43
2023-04-10T18:30:31.931Z,5.37
2023-04-10T18:32:33.525Z,4.63
2023-04-10T18:34:35.058Z,5.40
2023-04-10T18:36:36.621Z,4.80
2023-04-10T18:38:38.169Z,8.30
2023-04-10T18:40:39.780Z,4.60
2023-04-10T18:42:42.673Z,5.67
2023-04-10T18:44:44.344Z,4.33
2023-04-10T18:46:51.086Z,5.10
2023-04-10T18:48:55.551Z,5.17
2023-04-10T18:50:57.107Z,5.40
2023-04-10T18:52:58.650Z,4.97
2023-04-10T18:55:00.475Z,6.40
2023-04-10T18:57:02.329Z,4.83
2023-04-10T18:59:05.580Z,6.10
2023-04-10T19:01:07.318Z,7.57
2023-04-10T19:03:09.055Z,7.17
2023-04-10T19:05:10.665Z,8.30
2023-04-10T19:07:13.528Z,6.70
2023-04-10T19:09:15.200Z,7.27
2023-04-10T19:11:16.757Z,5.87
2023-04-10T19:13:18.378Z,5.97
2023-04-10T19:15:21.531Z,6.47
2023-04-10T19:17:23.192Z,6.47
2023-04-10T19:19:24.799Z,6.60
2023-04-10T19:21:26.392Z,6.40
2023-04-10T19:23:28.113Z,5.43
2023-04-10T19:25:29.993Z,7.43
2023-04-10T19:27:31.586Z,7.50
2023-04-10T19:29:33.164Z,5.97
2023-04-10T19:31:36.323Z,6.97
2023-04-10T19:33:38.021Z,7.73
2023-04-10T19:35:39.629Z,8.17
2023-04-10T19:37:41.270Z,7.93
2023-04-10T19:39:42.907Z,8.30
2023-04-10T19:41:44.542Z,7.17
2023-04-10T19:43:46.234Z,7.60
2023-04-10T19:45:47.870Z,7.30
2023-04-10T19:47:51.734Z,6.10
2023-04-10T19:49:53.344Z,6.33
2023-04-10T19:51:55.044Z,6.00
2023-04-10T19:53:56.885Z,6.97
2023-04-10T19:55:58.818Z,7.93
2023-04-10T19:58:00.382Z,9.23
2023-04-10T20:00:02.230Z,7.70
2023-04-10T20:02:03.985Z,8.70
2023-04-10T20:04:07.076Z,7.90
2023-04-10T20:06:08.849Z,8.00
2023-04-10T20:08:10.487Z,7.83
2023-04-10T20:10:12.119Z,7.73
2023-04-10T20:12:13.656Z,7.20
2023-04-10T20:14:15.525Z,6.80
2023-04-10T20:16:17.210Z,8.20
2023-04-10T20:18:18.935Z,7.43
2023-04-10T20:20:22.211Z,6.80
2023-04-10T20:22:23.822Z,7.60
2023-04-10T20:24:25.405Z,7.63
2023-04-10T20:26:27.003Z,6.23
2023-04-10T20:28:28.664Z,7.57
2023-04-10T20:30:30.437Z,6.17
2023-04-10T20:32:32.175Z,7.53
2023-04-10T20:34:35.362Z,6.57
2023-04-10T20:36:38.458Z,5.93
2023-04-10T20:38:40.317Z,5.50
2023-04-10T20:40:41.904Z,5.73
2023-04-10T20:42:43.542Z,5.17
2023-04-10T20:44:45.301Z,5.27
2023-04-10T20:46:47.321Z,11.43
2023-04-10T20:48:49.037Z,4.80
2023-04-10T20:50:50.658Z,7.53
2023-04-10T20:52:53.577Z,6.37
2023-04-10T20:54:55.117Z,5.43
2023-04-10T20:56:56.642Z,5.53
2023-04-10T20:58:58.220Z,4.97
2023-04-10T21:00:59.896Z,5.33
2023-04-10T21:03:01.738Z,4.80
2023-04-10T21:05:03.807Z,4.07
2023-04-10T21:07:05.372Z,5.40
2023-04-10T21:09:08.393Z,5.60
2023-04-10T21:11:09.963Z,7.30
2023-04-10T21:13:12.842Z,5.37
2023-04-10T21:15:14.398Z,5.70
2023-04-10T21:17:18.054Z,5.17
2023-04-10T21:19:19.684Z,5.13
2023-04-10T21:21:21.334Z,6.27
2023-04-10T21:23:25.862Z,5.13
2023-04-10T21:25:31.974Z,4.50
2023-04-10T21:27:33.535Z,4.83
2023-04-10T21:29:36.221Z,5.23
2023-04-10T21:31:37.774Z,5.40
2023-04-10T21:33:39.514Z,5.20
2023-04-10T21:35:42.319Z,5.20
2023-04-10T21:37:44.061Z,6.50
2023-04-10T21:39:45.626Z,5.40
2023-04-10T21:41:48.622Z,5.93
2023-04-10T21:43:50.181Z,5.33
2023-04-10T21:45:52.020Z,5.63
2023-04-10T21:47:53.800Z,5.30
2023-04-10T21:49:55.608Z,5.00
2023-04-10T21:51:57.218Z,5.33
2023-04-10T21:53:58.796Z,7.03
2023-04-10T21:56:00.577Z,6.53
2023-04-10T21:58:06.143Z,5.60
2023-04-10T22:00:08.951Z,5.97
2023-04-10T22:02:10.963Z,7.07
2023-04-10T22:04:12.745Z,7.67
2023-04-10T22:06:14.455Z,6.80
2023-04-10T22:08:16.216Z,6.93
2023-04-10T22:10:17.882Z,6.57
2023-04-10T22:12:19.555Z,6.10
2023-04-10T22:14:22.531Z,6.07
2023-04-10T22:16:24.296Z,6.50
2023-04-10T22:18:28.192Z,5.53
2023-04-10T22:20:31.841Z,5.03
2023-04-10T22:22:33.440Z,5.50
2023-04-10T22:24:35.398Z,5.70
2023-04-10T22:26:37.470Z,6.27
2023-04-10T22:28:39.241Z,5.50
2023-04-10T22:30:42.449Z,5.97
2023-04-10T22:32:44.334Z,6.90
2023-04-10T22:34:46.114Z,5.27
2023-04-10T22:36:48.153Z,5.30
2023-04-10T22:38:50.747Z,5.53
2023-04-10T22:40:54.005Z,4.70
2023-04-10T22:42:55.713Z,5.73
2023-04-10T22:44:57.262Z,12.00
2023-04-10T22:47:00.346Z,9.47
2023-04-10T22:49:02.135Z,7.83
2023-04-10T22:51:03.954Z,9.60
2023-04-10T22:53:05.664Z,5.30
2023-04-10T22:55:08.289Z,4.07
2023-04-10T22:57:10.154Z,6.30
2023-04-10T22:59:11.854Z,4.60
2023-04-10T23:01:13.540Z,6.73
2023-04-10T23:03:16.672Z,4.23
2023-04-10T23:05:18.383Z,3.20
2023-04-10T23:07:20.185Z,4.40
2023-04-10T23:09:21.856Z,3.70
2023-04-10T23:11:23.438Z,4.13
2023-04-10T23:13:25.129Z,3.83
2023-04-10T23:15:26.825Z,4.50
2023-04-10T23:17:28.568Z,7.63
2023-04-10T23:19:31.602Z,5.13
2023-04-10T23:21:33.339Z,4.23
2023-04-10T23:23:34.916Z,4.20
2023-04-10T23:25:37.191Z,4.30
2023-04-10T23:27:39.122Z,3.77
2023-04-10T23:29:40.816Z,5.17
2023-04-10T23:31:42.449Z,5.20
2023-04-10T23:33:44.148Z,3.93
2023-04-10T23:35:47.294Z,4.10
2023-04-10T23:37:49.751Z,3.97
2023-04-10T23:39:51.445Z,3.93
2023-04-10T23:41:53.055Z,4.93
2023-04-10T23:43:54.630Z,3.73
2023-04-10T23:45:56.236Z,6.77
2023-04-10T23:47:58.021Z,11.20
2023-04-10T23:49:59.884Z,3.80
2023-04-10T23:52:02.870Z,4.30
2023-04-10T23:54:05.610Z,5.43
2023-04-10T23:56:07.742Z,3.50
2023-04-10T23:58:09.357Z,7.80
